createdAt,value
2018-07-23T00:27:48.046Z,19.50
2018-07-23T00:33:23.211Z,18.97
2018-07-23T00:35:57.173Z,20.20
2018-07-23T00:39:06.339Z,19.33
2018-07-23T00:41:54.228Z,19.63
2018-07-23T00:44:29.034Z,21.03
2018-07-23T00:47:04.351Z,20.37
2018-07-23T00:49:35.452Z,18.67
2018-07-23T00:52:09.266Z,18.87
2018-07-23T00:54:44.208Z,18.30
2018-07-23T00:57:17.718Z,20.50
2018-07-23T00:59:53.193Z,21.30
2018-07-23T01:02:23.368Z,20.77
2018-07-23T01:04:53.405Z,21.13
2018-07-23T01:07:23.695Z,22.97
2018-07-23T01:09:55.576Z,21.40
2018-07-23T01:12:33.364Z,21.77
2018-07-23T01:15:02.619Z,21.03
2018-07-23T01:17:32.338Z,22.50
2018-07-23T01:20:03.043Z,21.90
2018-07-23T01:22:33.544Z,19.10
2018-07-23T01:25:04.184Z,20.00
2018-07-23T01:27:34.941Z,21.27
2018-07-23T01:30:05.298Z,20.37
2018-07-23T01:32:35.439Z,19.83
2018-07-23T01:35:05.659Z,18.87
2018-07-23T01:37:35.305Z,21.93
2018-07-23T01:40:04.670Z,21.53
2018-07-23T01:42:33.868Z,20.40
2018-07-23T01:45:03.134Z,19.90
2018-07-23T01:47:32.399Z,20.57
2018-07-23T01:50:01.632Z,19.13
2018-07-23T01:52:30.949Z,21.87
2018-07-23T01:55:01.778Z,21.00
2018-07-23T01:57:33.196Z,21.20
2018-07-23T02:00:08.834Z,21.73
2018-07-23T02:02:38.738Z,22.30
2018-07-23T02:05:08.610Z,21.90
2018-07-23T02:07:38.574Z,22.67
2018-07-23T02:10:08.588Z,20.97
2018-07-23T02:12:38.661Z,21.70
2018-07-23T02:15:08.699Z,22.13
2018-07-23T02:17:38.502Z,20.70
2018-07-23T02:20:09.389Z,22.17
2018-07-23T02:22:39.324Z,20.90
2018-07-23T02:25:09.010Z,19.97
2018-07-23T02:27:38.952Z,21.50
2018-07-23T02:30:08.285Z,20.80
2018-07-23T02:32:38.616Z,20.87
2018-07-23T02:35:08.425Z,22.53
2018-07-23T02:37:38.317Z,19.60
2018-07-23T02:40:08.322Z,21.37
2018-07-23T02:42:37.820Z,22.03
2018-07-23T02:45:07.088Z,21.03
2018-07-23T02:47:36.298Z,21.43
2018-07-23T02:50:05.596Z,22.50
2018-07-23T02:52:34.820Z,19.97
2018-07-23T02:55:04.072Z,23.07
2018-07-23T02:57:34.206Z,20.30
2018-07-23T03:00:04.183Z,21.10
2018-07-23T03:02:33.383Z,20.60
2018-07-23T03:05:02.645Z,22.33
2018-07-23T03:07:32.071Z,22.27
2018-07-23T03:10:01.419Z,20.27
2018-07-23T03:12:30.663Z,19.70
2018-07-23T03:14:59.881Z,20.63
2018-07-23T03:17:30.390Z,22.40
2018-07-23T03:20:00.087Z,21.20
2018-07-23T03:22:30.097Z,21.10
2018-07-23T03:25:00.137Z,23.10
2018-07-23T03:27:29.564Z,20.97
2018-07-23T03:30:00.820Z,21.70
2018-07-23T03:32:30.724Z,23.80
2018-07-23T03:34:59.927Z,21.07
2018-07-23T03:37:29.542Z,20.67
2018-07-23T03:40:01.075Z,21.93
2018-07-23T03:42:31.288Z,21.60
2018-07-23T03:45:01.915Z,22.50
2018-07-23T03:47:33.807Z,21.33
2018-07-23T03:50:03.498Z,22.97
2018-07-23T03:52:33.487Z,24.13
2018-07-23T03:55:04.118Z,20.07
2018-07-23T03:57:36.621Z,21.77
2018-07-23T04:00:06.140Z,23.63
2018-07-23T04:02:35.388Z,24.10
2018-07-23T04:05:05.119Z,23.73
2018-07-23T04:07:38.101Z,23.80
2018-07-23T04:10:08.351Z,22.83
2018-07-23T04:12:37.943Z,24.77
2018-07-23T04:15:07.605Z,25.00
2018-07-23T04:17:37.118Z,24.20
2018-07-23T04:20:06.998Z,23.03
2018-07-23T04:22:37.868Z,24.77
2018-07-23T04:25:07.476Z,25.27
2018-07-23T04:27:37.686Z,26.27
2018-07-23T04:30:07.461Z,24.37
2018-07-23T04:32:37.766Z,24.67
2018-07-23T04:35:07.098Z,24.70
2018-07-23T04:37:36.445Z,25.10
2018-07-23T04:40:05.704Z,24.30
2018-07-23T04:42:36.539Z,26.40
2018-07-23T04:45:06.235Z,28.20
2018-07-23T04:47:35.665Z,23.90
2018-07-23T04:50:05.217Z,24.00
2018-07-23T04:52:34.640Z,24.57
2018-07-23T04:55:04.345Z,23.93
2018-07-23T04:57:34.321Z,25.00
2018-07-23T05:00:05.826Z,23.77
2018-07-23T05:02:35.641Z,25.23
2018-07-23T05:05:05.889Z,25.37
2018-07-23T05:07:36.809Z,23.97
2018-07-23T05:10:08.225Z,24.43
2018-07-23T05:12:39.265Z,25.30
2018-07-23T05:15:10.438Z,24.60
2018-07-23T05:17:40.454Z,23.53
2018-07-23T05:20:10.493Z,24.27
2018-07-23T05:22:40.500Z,24.20
2018-07-23T05:25:11.183Z,25.30
2018-07-23T05:27:40.754Z,22.90
2018-07-23T05:30:10.089Z,21.80
2018-07-23T05:32:39.525Z,21.43
2018-07-23T05:35:08.812Z,23.37
2018-07-23T05:37:38.037Z,23.30
2018-07-23T05:40:07.559Z,23.27
2018-07-23T05:42:36.820Z,22.43
2018-07-23T05:45:06.452Z,29.10
2018-07-23T05:47:35.704Z,22.00
2018-07-23T05:50:05.306Z,24.07
2018-07-23T05:52:36.480Z,21.23
2018-07-23T05:55:06.996Z,21.73
2018-07-23T05:57:37.767Z,23.77
2018-07-23T06:00:10.001Z,27.53
2018-07-23T06:02:40.760Z,21.97
2018-07-23T06:05:11.612Z,21.90
2018-07-23T06:07:41.621Z,21.53
2018-07-23T06:10:12.320Z,20.50
2018-07-23T06:12:42.848Z,22.10
2018-07-23T06:15:13.302Z,22.40
2018-07-23T06:17:44.646Z,20.03
2018-07-23T06:20:14.969Z,21.20
2018-07-23T06:22:44.461Z,23.10
2018-07-23T06:25:14.486Z,20.20
2018-07-23T06:27:55.309Z,19.63
2018-07-23T06:30:29.424Z,19.87
2018-07-23T06:33:01.194Z,18.57
2018-07-23T06:35:33.281Z,20.17
2018-07-23T06:38:08.636Z,19.20
2018-07-23T06:40:51.614Z,19.17
2018-07-23T06:43:23.183Z,20.10
2018-07-23T06:45:56.177Z,17.87
2018-07-23T06:48:35.817Z,18.10
2018-07-23T06:51:07.068Z,20.77
2018-07-23T06:53:39.414Z,19.30
2018-07-23T06:56:10.840Z,18.83
2018-07-23T07:01:22.978Z,15.80
2018-07-23T07:03:55.328Z,17.50
2018-07-23T07:06:26.207Z,16.60
2018-07-23T07:08:57.239Z,15.43
2018-07-23T07:11:28.708Z,14.67
2018-07-23T07:14:02.444Z,15.33
2018-07-23T07:16:40.097Z,15.10
2018-07-23T07:19:18.537Z,15.13
2018-07-23T07:21:53.507Z,15.60
2018-07-23T07:24:28.587Z,14.20
2018-07-23T07:27:04.481Z,16.77
2018-07-23T07:29:44.492Z,13.03
2018-07-23T07:32:24.588Z,14.23
2018-07-23T07:35:07.084Z,14.30
2018-07-23T07:37:45.252Z,14.40
2018-07-23T07:40:19.440Z,12.23
2018-07-23T07:42:56.678Z,9.20
2018-07-23T07:45:53.092Z,9.67
2018-07-23T07:48:29.348Z,8.33
2018-07-23T07:51:05.017Z,10.83
2018-07-23T07:53:35.934Z,10.30
2018-07-23T07:56:08.220Z,8.80
2018-07-23T07:58:38.533Z,7.93
2018-07-23T08:01:08.473Z,7.53
2018-07-23T08:03:39.331Z,7.43
2018-07-23T08:06:08.798Z,6.43
2018-07-23T08:08:38.008Z,6.33
2018-07-23T08:11:09.781Z,6.43
2018-07-23T08:13:39.781Z,6.10
2018-07-23T08:16:09.951Z,7.03
2018-07-23T08:18:39.636Z,10.10
2018-07-23T08:21:11.092Z,6.73
2018-07-23T08:23:40.312Z,8.20
2018-07-23T08:26:09.536Z,6.47
2018-07-23T08:28:39.714Z,7.00
2018-07-23T08:31:09.357Z,7.40
2018-07-23T08:33:38.601Z,7.10
2018-07-23T08:36:08.455Z,6.97
2018-07-23T08:38:38.360Z,7.17
2018-07-23T08:41:08.355Z,7.37
2018-07-23T08:43:38.909Z,7.60
2018-07-23T08:46:13.290Z,8.07
2018-07-23T08:48:43.083Z,8.60
2018-07-23T08:51:12.270Z,7.53
2018-07-23T08:53:41.436Z,7.07
2018-07-23T08:56:10.675Z,8.50
2018-07-23T08:58:39.887Z,7.87
2018-07-23T09:01:09.766Z,8.00
2018-07-23T09:03:40.803Z,8.80
2018-07-23T09:06:11.236Z,7.33
2018-07-23T09:08:42.483Z,7.10
2018-07-23T09:11:14.345Z,8.60
2018-07-23T09:13:43.968Z,8.93
2018-07-23T09:16:13.908Z,8.20
2018-07-23T09:18:44.445Z,7.70
2018-07-23T09:21:13.982Z,8.00
2018-07-23T09:23:45.342Z,8.50
2018-07-23T09:26:14.795Z,8.10
2018-07-23T09:28:45.244Z,8.50
2018-07-23T09:31:15.613Z,7.27
2018-07-23T09:33:47.488Z,9.40
2018-07-23T09:36:21.053Z,8.60
2018-07-23T09:38:50.334Z,8.40
2018-07-23T09:41:19.564Z,8.00
2018-07-23T09:43:48.731Z,8.07
2018-07-23T09:46:17.964Z,8.43
2018-07-23T09:48:47.169Z,8.60
2018-07-23T09:51:16.541Z,9.10
2018-07-23T09:53:45.760Z,8.50
2018-07-23T09:56:15.108Z,7.40
2018-07-23T09:58:44.396Z,11.83
2018-07-23T10:01:17.721Z,8.60
2018-07-23T10:03:47.235Z,7.73
2018-07-23T10:06:16.513Z,7.40
2018-07-23T10:08:45.689Z,9.63
2018-07-23T10:11:14.983Z,8.37
2018-07-23T10:13:44.501Z,7.27
2018-07-23T10:16:14.179Z,7.13
2018-07-23T10:18:43.384Z,6.67
2018-07-23T10:21:12.636Z,7.43
2018-07-23T10:23:42.008Z,13.33
2018-07-23T10:26:11.599Z,6.43
2018-07-23T10:28:40.838Z,6.97
2018-07-23T10:31:10.661Z,6.60
2018-07-23T10:33:40.022Z,7.00
2018-07-23T10:36:09.248Z,6.33
2018-07-23T10:38:40.423Z,6.37
2018-07-23T10:41:11.605Z,6.80
2018-07-23T10:43:43.171Z,6.53
2018-07-23T10:46:13.344Z,6.70
2018-07-23T10:48:43.231Z,6.23
2018-07-23T10:51:12.670Z,8.43
2018-07-23T10:53:41.903Z,7.90
2018-07-23T10:56:13.993Z,6.73
2018-07-23T10:58:47.750Z,6.50
2018-07-23T11:01:28.871Z,7.50
2018-07-23T11:04:00.624Z,6.57
2018-07-23T11:06:35.354Z,6.00
2018-07-23T11:09:14.525Z,6.30
2018-07-23T11:11:45.461Z,6.73
2018-07-23T11:14:14.899Z,7.00
2018-07-23T11:16:45.283Z,5.97
2018-07-23T11:19:15.302Z,6.50
2018-07-23T11:21:44.987Z,7.13
2018-07-23T11:24:15.075Z,6.33
2018-07-23T11:26:45.017Z,5.83
2018-07-23T11:29:15.016Z,6.33
2018-07-23T11:31:44.986Z,6.77
2018-07-23T11:34:15.320Z,6.70
2018-07-23T11:36:45.635Z,7.10
2018-07-23T11:39:16.137Z,9.77
2018-07-23T11:41:47.425Z,12.60
2018-07-23T11:44:17.261Z,5.63
2018-07-23T11:46:47.199Z,6.80
2018-07-23T11:49:18.668Z,5.67
2018-07-23T11:51:48.615Z,6.50
2018-07-23T11:54:19.350Z,6.47
2018-07-23T11:56:49.242Z,6.60
2018-07-23T11:59:19.663Z,6.17
2018-07-23T12:01:49.615Z,7.77
2018-07-23T12:04:20.358Z,7.93
2018-07-23T12:06:49.976Z,7.30
2018-07-23T12:09:19.292Z,7.17
2018-07-23T12:11:51.855Z,8.70
2018-07-23T12:14:26.521Z,6.17
2018-07-23T12:16:59.239Z,8.67
2018-07-23T12:19:40.962Z,8.73
2018-07-23T12:22:12.658Z,7.90
2018-07-23T12:24:45.477Z,8.50
2018-07-23T12:27:19.061Z,5.70
2018-07-23T12:29:49.255Z,5.20
2018-07-23T12:32:18.530Z,5.60
2018-07-23T12:34:47.710Z,7.77
2018-07-23T12:37:16.965Z,7.27
2018-07-23T12:39:46.281Z,6.63
2018-07-23T12:42:16.173Z,6.87
2018-07-23T12:44:46.733Z,5.60
2018-07-23T12:47:17.626Z,6.30
2018-07-23T12:49:47.374Z,5.13
2018-07-23T12:52:17.714Z,4.90
2018-07-23T12:54:46.977Z,6.63
2018-07-23T12:57:16.714Z,6.43
2018-07-23T12:59:46.450Z,6.13
2018-07-23T13:02:15.636Z,6.00
2018-07-23T13:04:45.177Z,6.30
2018-07-23T13:07:15.208Z,6.63
2018-07-23T13:09:50.828Z,5.77
2018-07-23T13:12:20.753Z,6.53
2018-07-23T13:14:53.417Z,7.87
2018-07-23T13:17:28.535Z,7.00
2018-07-23T13:20:01.357Z,7.23
2018-07-23T13:22:35.512Z,7.50
2018-07-23T13:25:05.020Z,7.33
2018-07-23T13:27:34.272Z,6.67
2018-07-23T13:30:05.266Z,7.20
2018-07-23T13:32:38.889Z,6.47
2018-07-23T13:35:12.125Z,6.87
2018-07-23T13:37:47.649Z,6.00
2018-07-23T13:40:18.738Z,6.00
2018-07-23T13:42:52.894Z,5.97
2018-07-23T13:45:27.884Z,8.43
2018-07-23T13:48:05.433Z,6.00
2018-07-23T13:50:36.033Z,5.50
2018-07-23T13:53:07.873Z,5.40
2018-07-23T13:55:38.131Z,5.33
2018-07-23T13:58:09.750Z,5.73
2018-07-23T14:00:42.005Z,5.60
2018-07-23T14:03:12.449Z,5.00
2018-07-23T14:05:42.139Z,5.93
2018-07-23T14:08:11.473Z,7.70
2018-07-23T14:10:43.554Z,6.40
2018-07-23T14:13:16.865Z,5.47
2018-07-23T14:15:52.266Z,4.83
2018-07-23T14:18:24.063Z,4.43
2018-07-23T14:20:57.200Z,5.30
2018-07-23T14:23:27.024Z,5.80
2018-07-23T14:25:57.477Z,5.80
2018-07-23T14:28:31.196Z,4.90
2018-07-23T14:31:02.326Z,6.00
2018-07-23T14:33:32.668Z,5.70
2018-07-23T14:36:02.222Z,5.20
2018-07-23T14:38:32.050Z,5.90
2018-07-23T14:41:03.447Z,5.17
2018-07-23T14:43:33.529Z,5.70
2018-07-23T14:46:04.387Z,4.93
2018-07-23T14:48:34.525Z,5.37
2018-07-23T14:51:05.131Z,4.57
2018-07-23T14:53:35.248Z,5.00
2018-07-23T14:56:07.292Z,5.37
2018-07-23T14:58:39.073Z,5.13
2018-07-23T15:01:14.024Z,5.30
2018-07-23T15:03:46.144Z,4.93
2018-07-23T15:06:17.083Z,5.27
2018-07-23T15:08:49.083Z,5.10
2018-07-23T15:11:19.329Z,5.10
2018-07-23T15:13:52.526Z,4.93
2018-07-23T15:16:23.762Z,5.20
2018-07-23T15:18:53.415Z,5.17
2018-07-23T15:21:23.849Z,5.30
2018-07-23T15:23:53.948Z,5.30
2018-07-23T15:26:24.580Z,5.20
2018-07-23T15:28:55.445Z,5.30
2018-07-23T15:31:26.245Z,5.00
2018-07-23T15:33:58.058Z,4.60
2018-07-23T15:36:27.895Z,4.90
2018-07-23T15:38:57.680Z,5.30
2018-07-23T15:41:27.837Z,5.27
2018-07-23T15:43:58.511Z,5.33
2018-07-23T15:46:28.737Z,4.67
2018-07-23T15:48:58.458Z,4.80
2018-07-23T15:51:28.027Z,5.13
2018-07-23T15:53:58.152Z,4.77
2018-07-23T15:56:29.767Z,4.57
2018-07-23T15:59:05.921Z,5.00
2018-07-23T16:01:40.115Z,4.33
2018-07-23T16:04:36.742Z,4.87
2018-07-23T16:07:07.900Z,5.53
2018-07-23T16:09:37.933Z,4.90
2018-07-23T16:12:07.514Z,5.10
2018-07-23T16:14:38.029Z,4.30
2018-07-23T16:17:08.377Z,4.83
2018-07-23T16:19:41.762Z,5.27
2018-07-23T16:22:15.496Z,5.10
2018-07-23T16:24:51.339Z,5.37
2018-07-23T16:27:23.668Z,5.07
2018-07-23T16:29:53.755Z,4.80
2018-07-23T16:32:27.578Z,4.30
2018-07-23T16:34:58.052Z,4.67
2018-07-23T16:37:29.041Z,6.83
2018-07-23T16:39:59.828Z,4.50
2018-07-23T16:42:30.419Z,4.87
2018-07-23T16:45:01.400Z,5.00
2018-07-23T16:47:32.964Z,4.40
2018-07-23T16:50:03.148Z,4.43
2018-07-23T16:52:33.661Z,4.10
2018-07-23T16:55:07.075Z,4.53
2018-07-23T16:57:37.901Z,4.17
2018-07-23T17:00:08.059Z,4.70
2018-07-23T17:02:44.360Z,4.87
2018-07-23T17:05:20.494Z,4.60
2018-07-23T17:07:51.692Z,4.37
2018-07-23T17:10:26.961Z,4.20
2018-07-23T17:12:59.070Z,4.00
2018-07-23T17:15:32.067Z,4.03
2018-07-23T17:18:10.280Z,3.50
2018-07-23T17:20:43.180Z,4.57
2018-07-23T17:23:13.817Z,3.70
2018-07-23T17:25:46.009Z,5.63
2018-07-23T17:28:17.017Z,3.90
2018-07-23T17:30:46.842Z,4.33
2018-07-23T17:33:17.613Z,3.43
2018-07-23T17:35:49.011Z,4.53
2018-07-23T17:38:23.873Z,3.80
2018-07-23T17:40:57.785Z,4.43
2018-07-23T17:43:30.190Z,4.40
2018-07-23T17:46:07.328Z,4.07
2018-07-23T17:48:37.490Z,4.00
2018-07-23T17:51:07.457Z,4.00
2018-07-23T17:53:38.094Z,4.23
2018-07-23T17:56:08.575Z,4.13
2018-07-23T17:58:49.297Z,4.20
2018-07-23T18:01:23.214Z,4.37
2018-07-23T18:03:55.951Z,3.60
2018-07-23T18:06:25.471Z,3.77
2018-07-23T18:08:54.764Z,4.07
2018-07-23T18:11:24.132Z,3.97
2018-07-23T18:13:54.541Z,4.13
2018-07-23T18:16:24.758Z,4.10
2018-07-23T18:18:54.978Z,3.80
2018-07-23T18:21:25.243Z,3.20
2018-07-23T18:23:55.281Z,4.03
2018-07-23T18:26:39.235Z,5.30
2018-07-23T18:29:08.626Z,3.90
2018-07-23T18:31:38.096Z,4.67
2018-07-23T18:34:08.282Z,4.20
2018-07-23T18:36:38.333Z,4.30
2018-07-23T18:39:10.336Z,4.00
2018-07-23T18:41:41.229Z,4.33
2018-07-23T18:44:10.636Z,4.27
2018-07-23T18:46:40.604Z,4.03
2018-07-23T18:49:55.541Z,4.03
2018-07-23T18:52:26.576Z,3.80
2018-07-23T18:54:57.904Z,3.90
2018-07-23T18:57:27.849Z,5.17
2018-07-23T19:00:00.436Z,4.40
2018-07-23T19:02:30.437Z,4.60
2018-07-23T19:05:00.332Z,4.70
2018-07-23T19:07:30.191Z,4.00
2018-07-23T19:10:00.933Z,3.90
2018-07-23T19:12:30.874Z,5.20
2018-07-23T19:15:00.291Z,4.40
2018-07-23T19:17:30.962Z,5.00
2018-07-23T19:20:01.826Z,4.80
2018-07-23T19:22:33.737Z,4.70
2018-07-23T19:25:04.472Z,4.70
2018-07-23T19:27:35.550Z,4.83
2018-07-23T19:30:08.252Z,4.53
2018-07-23T19:32:38.976Z,5.50
2018-07-23T19:35:08.918Z,5.03
2018-07-23T19:37:38.476Z,5.03
2018-07-23T19:40:08.674Z,7.10
2018-07-23T19:42:38.652Z,5.57
2018-07-23T19:45:09.867Z,5.20
2018-07-23T19:47:41.564Z,6.27
2018-07-23T19:50:13.559Z,5.07
2018-07-23T19:52:43.438Z,5.47
2018-07-23T19:55:13.027Z,5.90
2018-07-23T19:57:42.495Z,5.50
2018-07-23T20:00:12.307Z,5.03
2018-07-23T20:02:42.695Z,7.33
2018-07-23T20:05:12.658Z,5.37
2018-07-23T20:07:42.755Z,4.90
2018-07-23T20:10:12.202Z,6.43
2018-07-23T20:12:42.403Z,6.30
2018-07-23T20:15:12.213Z,6.33
2018-07-23T20:17:43.967Z,5.60
2018-07-23T20:20:14.307Z,5.40
2018-07-23T20:22:43.808Z,7.27
2018-07-23T20:25:13.994Z,5.50
2018-07-23T20:27:44.105Z,6.20
2018-07-23T20:30:13.700Z,6.57
2018-07-23T20:32:44.071Z,6.30
2018-07-23T20:35:14.370Z,8.70
2018-07-23T20:37:44.865Z,5.80
2018-07-23T20:40:14.744Z,5.67
2018-07-23T20:42:44.833Z,8.50
2018-07-23T20:45:14.670Z,11.70
2018-07-23T20:47:45.643Z,8.50
2018-07-23T20:50:16.947Z,9.10
2018-07-23T20:52:49.984Z,10.10
2018-07-23T20:55:20.796Z,10.03
2018-07-23T20:57:53.408Z,7.20
2018-07-23T21:00:23.574Z,6.80
2018-07-23T21:02:53.638Z,6.13
2018-07-23T21:05:23.585Z,6.10
2018-07-23T21:07:54.062Z,7.93
2018-07-23T21:10:24.812Z,10.13
2018-07-23T21:12:54.489Z,9.67
2018-07-23T21:15:25.648Z,11.37
2018-07-23T21:17:56.236Z,8.30
2018-07-23T21:20:26.756Z,8.17
2018-07-23T21:22:57.133Z,8.40
2018-07-23T21:25:27.256Z,7.60
2018-07-23T21:28:00.909Z,10.83
2018-07-23T21:30:35.466Z,8.07
2018-07-23T21:33:06.645Z,19.03
2018-07-23T21:35:35.912Z,8.87
2018-07-23T21:38:05.682Z,9.00
2018-07-23T21:40:35.510Z,8.07
2018-07-23T21:43:05.543Z,7.47
2018-07-23T21:45:35.667Z,6.87
2018-07-23T21:48:05.064Z,7.33
2018-07-23T21:50:34.507Z,7.10
2018-07-23T21:53:04.199Z,7.90
2018-07-23T21:55:33.848Z,8.40
2018-07-23T21:58:03.866Z,8.47
2018-07-23T22:00:36.214Z,7.10
2018-07-23T22:03:06.178Z,8.40
2018-07-23T22:05:36.768Z,7.00
2018-07-23T22:08:06.429Z,7.50
2018-07-23T22:10:35.988Z,7.53
2018-07-23T22:13:05.575Z,8.10
2018-07-23T22:15:34.882Z,7.73
2018-07-23T22:18:04.738Z,8.27
2018-07-23T22:20:34.684Z,8.90
2018-07-23T22:23:04.465Z,8.10
2018-07-23T22:25:33.723Z,8.40
2018-07-23T22:28:03.192Z,7.30
2018-07-23T22:30:34.614Z,8.80
2018-07-23T22:33:03.960Z,10.23
2018-07-23T22:35:33.262Z,8.13
2018-07-23T22:38:02.528Z,7.67
2018-07-23T22:40:31.734Z,7.70
2018-07-23T22:43:02.510Z,7.63
2018-07-23T22:45:32.408Z,7.20
2018-07-23T22:48:01.719Z,7.70
2018-07-23T22:50:30.956Z,7.33
2018-07-23T22:53:00.208Z,7.10
2018-07-23T22:55:29.760Z,7.43
2018-07-23T22:57:59.897Z,7.53
2018-07-23T23:00:29.709Z,8.57
2018-07-23T23:02:59.023Z,8.40
2018-07-23T23:05:28.343Z,7.37
2018-07-23T23:07:57.576Z,7.87
2018-07-23T23:10:26.783Z,8.20
2018-07-23T23:12:55.981Z,7.90
2018-07-23T23:15:25.192Z,9.27
2018-07-23T23:17:54.390Z,8.50
2018-07-23T23:20:23.647Z,9.00
2018-07-23T23:22:53.120Z,9.50
2018-07-23T23:25:23.052Z,8.30
2018-07-23T23:27:52.317Z,8.13
2018-07-23T23:30:21.569Z,8.43
2018-07-23T23:32:50.773Z,9.80
2018-07-23T23:35:20.006Z,8.53
2018-07-23T23:37:49.208Z,9.47
2018-07-23T23:40:18.384Z,10.20
2018-07-23T23:42:48.022Z,10.10
2018-07-23T23:45:17.262Z,11.27
2018-07-23T23:47:46.529Z,12.27
2018-07-23T23:50:15.728Z,11.87
2018-07-23T23:52:45.037Z,11.83
2018-07-23T23:55:14.272Z,12.67
2018-07-23T23:57:43.539Z,11.60
